Weather observations for the past three days for
Carlsbad, McClellan-Palomar Airport
Imperial (Metric)
Date Time (pdt) Wind (mph) Vis. (mi.) Weather Sky Cond. Temperature (ºF) Relative Humidity Wind Chill (°F) Heat Index (°F) Pressure Precipitation (in)
Air Dwpt 6 hour altimeter (in) sea level (mb) 1 hr 3 hr 6 hr
Max. Min.
10 06:53 Calm 10.00 Overcast OVC009 61 57 87% 29.9 1012.4
10 05:53 Calm 10.00 Overcast OVC009 61 55.9 84% 29.89 1012.1
10 04:53 Calm 10.00 Overcast OVC009 61 55.9 62.1 61 84% 29.89 1011.9
10 03:53 Vrbl 3 10.00 Overcast OVC010 61 55.9 84% 29.9 1012.1
10 02:53 S 5 10.00 Overcast OVC011 61 57 87% 29.9 1012.1
10 01:53 Calm 10.00 Overcast OVC011 62.1 57 84% 29.9 1012.4
10 00:53 SE 3 10.00 Overcast OVC012 62.1 55.9 80% 29.91 1012.7
09 23:53 SE 3 10.00 Overcast OVC012 62.1 57 84% 29.92 1012.9
09 22:53 Calm 10.00 Overcast OVC012 62.1 57 66 61 84% 29.92 1012.9
09 21:53 SW 5 10.00 Overcast OVC012 62.1 57 84% 29.92 1013.0
09 20:53 W 3 10.00 Overcast OVC012 62.1 55.9 80% 29.91 1012.6
09 19:53 W 6 10.00 Overcast OVC012 63 55.9 78% 29.89 1012.0
09 18:53 SW 7 10.00 Fair CLR 63 55.9 78% 29.88 1011.7
09 17:53 W 8 10.00 Fair CLR 64.9 55.9 73% 29.88 1011.7
09 16:53 W 8 10.00 Fair CLR 66 55.9 68 64.9 70% 29.88 1011.5
09 15:53 SW 8 10.00 Fair CLR 66.9 55.9 68% 29.88 1011.6
09 14:53 W 7 10.00 Fair CLR 64.9 55.9 73% 29.9 1012.2
09 13:53 W 7 G 17 10.00 Fair CLR 66 57 73% 29.91 1012.7
09 12:53 W 8 10.00 Fair CLR 66 55.9 70% 29.92 1012.9
09 11:53 W 9 10.00 Fair CLR 66.9 57 71% 29.92 1013.0
09 10:53 SW 7 10.00 Fair CLR 66.9 57 66.9 61 71% 29.93 1013.1
09 09:53 SW 6 10.00 Overcast OVC015 64.9 57 76% 29.93 1013.2
09 08:53 Calm 10.00 Overcast OVC012 63 57 81% 29.93 1013.5
09 07:53 Calm 10.00 Overcast OVC010 62.1 57 84% 29.94 1013.5
09 06:53 S 5 10.00 Overcast OVC009 62.1 57 84% 29.92 1013.1
09 05:53 Calm 10.00 Overcast OVC008 61 57 87% 29.92 1012.9
09 04:53 S 5 10.00 Overcast OVC008 61 57.9 62.1 61 90% 29.92 1012.9
09 03:53 E 5 10.00 Overcast OVC008 62.1 57.9 86% 29.92 1012.7
09 02:53 S 6 10.00 Overcast OVC008 61 57.9 90% 29.92 1013.1
09 01:53 Vrbl 3 10.00 Overcast OVC008 62.1 57.9 86% 29.93 1013.3
09 00:53 E 3 10.00 Overcast OVC009 62.1 57.9 86% 29.95 1013.8
08 23:53 Calm 10.00 Overcast OVC008 61 57 87% 29.96 1014.2
08 22:53 Calm 10.00 Overcast OVC009 62.1 57 66 62.1 84% 29.96 1014.2
08 21:53 Calm 10.00 Overcast OVC009 62.1 57 84% 29.96 1014.5
08 20:53 W 5 10.00 Overcast OVC010 62.1 57 84% 29.95 1014.2
08 19:53 W 6 10.00 Overcast OVC009 63 57 81% 29.94 1013.8
08 18:53 W 7 10.00 A Few Clouds FEW011 63 57 81% 29.93 1013.3
08 17:53 W 7 10.00 A Few Clouds FEW012 64.9 57.9 78% 29.93 1013.2
08 16:53 W 7 10.00 A Few Clouds FEW014 66 57.9 69.1 66 75% 29.93 1013.4
08 15:53 W 8 G 17 10.00 A Few Clouds FEW015 66.9 57 71% 29.94 1013.8
08 14:53 W 12 10.00 Fair CLR 66.9 57 71% 29.96 1014.3
08 13:53 W 10 10.00 Fair CLR 68 57 68% 29.96 1014.4
08 12:53 SW 8 10.00 Fair CLR 68 57 68% 29.97 1014.5
08 11:53 SW 10 10.00 Fair CLR 68 57 68% 29.99 1015.1
08 10:53 Calm 10.00 Overcast OVC017 66.9 55.9 66.9 60.1 68% 30 1015.7
08 09:53 Calm 10.00 Overcast OVC013 63 55.9 78% 30.01 1016.0
08 08:53 S 3 10.00 Overcast OVC011 62.1 55.9 80% 30.01 1016.2
08 07:53 Calm 10.00 Overcast OVC010 61 55.9 84% 30.01 1016.1
08 06:53 Calm 6.00 Fog/Mist OVC010 60.1 55.9 86% 30 1015.8
08 05:53 S 5 10.00 Overcast OVC009 61 55.9 84% 29.99 1015.4
08 04:53 Calm 10.00 Overcast OVC009 60.1 55.9 62.1 60.1 86% 29.99 1015.3
08 03:53 SE 6 10.00 Overcast OVC009 61 57 87% 29.98 1015.2
08 02:53 SE 3 10.00 Overcast OVC009 61 57 87% 29.99 1015.4
08 01:53 E 3 10.00 Overcast OVC009 61 57 87% 29.99 1015.5
08 00:53 Calm 10.00 Overcast OVC010 61 57 87% 30.01 1015.9
07 23:53 S 3 10.00 Overcast OVC010 62.1 57 84% 30.01 1016.1
07 22:53 S 3 10.00 Overcast OVC010 61 57 64 61 87% 30.02 1016.3
07 21:53 S 5 10.00 Overcast OVC010 62.1 57 84% 30.01 1016.2
07 20:53 W 5 10.00 Overcast OVC010 62.1 55.9 80% 29.99 1015.5
07 19:53 W 6 10.00 Overcast OVC010 62.1 57 84% 29.97 1014.7
07 18:53 Calm 10.00 Mostly Cloudy BKN012 62.1 55.9 80% 29.96 1014.3
07 17:53 SW 6 10.00 Partly Cloudy SCT013 63 55.9 78% 29.96 1014.3
07 16:53 SW 8 10.00 Mostly Cloudy BKN014 64 55.9 66 63 75% 29.96 1014.4
07 15:53 W 9 10.00 Overcast OVC014 64 55.9 75% 29.96 1014.3
07 14:53 W 9 10.00 Mostly Cloudy BKN015 64.9 55.9 73% 29.98 1014.9
07 13:53 W 10 10.00 A Few Clouds FEW015 64.9 55.9 73% 29.99 1015.2
07 12:53 SW 9 10.00 Fair CLR 66 55.9 70% 29.99 1015.4
07 11:53 W 8 10.00 Fair CLR 64.9 55.9 73% 30 1015.8
07 10:53 W 7 10.00 Fair CLR 64.9 55 64.9 55.9 70% 30.01 1016.1
07 09:53 SW 7 10.00 Fair CLR 64 55.9 75% 30.02 1016.3
07 08:53 SW 5 10.00 Overcast OVC012 61 55 81% 30.03 1016.6
07 07:53 Calm 10.00 Overcast OVC010 60.1 55.9 86% 30.02 1016.5
Date Time (pdt) Wind (mph) Vis. (mi.) Weather Sky Cond. Air Dwpt Max. Min. Relative Humidity Wind Chill (°F) Heat Index (°F) altimeter (in) sea level (mb) 1 hr 3 hr 6 hr
6 hour
Temperature (ºF) Pressure Precipitation (in)